Time;durP1;ratioP1;P1;durP2;ratioP2;P2;SDS_P1;SDS_P2;PMS_P1;PMS_P2;Temp;Humidity;BMP_temperature;BMP_pressure;BME280_temperature;BME280_humidity;BME280_pressure;Samples;Min_cycle;Max_cycle;Signal;HPM_P1;HPM_P2
2022/03/26 00:00:55;;;;;;;8.43;7.62;;;;;;;17.82;41.92;100182.65;1801272;78;20989;-64
2022/03/26 00:03:22;;;;;;;9.10;8.23;;;;;;;17.81;41.92;100177.47;1788008;80;21474;-64
2022/03/26 00:05:48;;;;;;;8.83;8.00;;;;;;;17.79;41.92;100175.51;1788050;80;21133;-64
2022/03/26 00:08:15;;;;;;;8.58;7.78;;;;;;;17.78;41.94;100167.16;1788159;80;20986;-63
2022/03/26 00:10:42;;;;;;;8.63;7.83;;;;;;;17.76;41.94;100160.63;1811224;78;21014;-64
2022/03/26 00:13:09;;;;;;;9.13;8.33;;;;;;;17.74;41.94;100160.02;1820308;78;21005;-64
2022/03/26 00:15:36;;;;;;;8.40;7.65;;;;;;;17.74;41.95;100155.98;1820332;78;20991;-65
2022/03/26 00:18:03;;;;;;;8.48;7.62;;;;;;;17.73;41.95;100162.41;1819095;77;21205;-64
2022/03/26 00:20:31;;;;;;;9.05;7.78;;;;;;;17.72;41.96;100160.73;1819174;78;21021;-66
2022/03/26 00:22:59;;;;;;;8.80;7.90;;;;;;;17.71;41.96;100159.06;1814642;78;20987;-65
2022/03/26 00:25:25;;;;;;;8.90;8.00;;;;;;;17.69;41.97;100157.10;1814520;79;21030;-64
2022/03/26 00:27:52;;;;;;;8.93;8.05;;;;;;;17.67;41.98;100149.27;1814607;78;21553;-64
2022/03/26 00:30:19;;;;;;;9.05;8.20;;;;;;;17.67;42.00;100144.39;1814583;79;21131;-65
2022/03/26 00:32:45;;;;;;;8.60;7.80;;;;;;;17.65;42.00;100144.62;1814480;78;21159;-65
2022/03/26 00:35:12;;;;;;;8.10;7.33;;;;;;;17.65;41.99;100143.77;1813371;78;21069;-64
2022/03/26 00:37:40;;;;;;;8.70;7.90;;;;;;;17.65;41.99;100142.42;1814661;79;21529;-64
2022/03/26 00:40:09;;;;;;;8.00;7.30;;;;;;;17.62;42.01;100132.11;1814614;79;21103;-64
2022/03/26 00:42:36;;;;;;;8.88;7.97;;;;;;;17.61;42.02;100130.44;1814902;79;21083;-64
2022/03/26 00:45:05;;;;;;;9.13;8.30;;;;;;;17.60;42.02;100124.77;1814410;79;20979;-64
2022/03/26 00:47:32;;;;;;;8.98;8.18;;;;;;;17.58;42.03;100126.84;1814523;79;21069;-64
2022/03/26 00:49:59;;;;;;;8.50;7.80;;;;;;;17.57;42.03;100123.30;1814545;79;21534;-65
2022/03/26 00:52:25;;;;;;;7.65;6.95;;;;;;;17.57;42.04;100127.85;1796433;77;21060;-63
2022/03/26 00:54:52;;;;;;;7.70;6.90;;;;;;;17.54;42.02;100129.10;1782363;80;21180;-64
2022/03/26 00:57:18;;;;;;;8.95;8.10;;;;;;;17.53;42.04;100123.41;1795062;79;21022;-63
2022/03/26 00:59:45;;;;;;;8.50;7.70;;;;;;;17.52;42.04;100119.57;1810700;79;21639;-63
2022/03/26 01:02:12;;;;;;;8.05;7.25;;;;;;;17.52;42.06;100118.23;1814416;78;21045;-64
2022/03/26 01:04:39;;;;;;;8.13;7.33;;;;;;;17.49;42.07;100108.20;1814723;78;20962;-65
2022/03/26 01:07:06;;;;;;;8.70;7.85;;;;;;;17.49;42.07;100111.41;1814455;79;21223;-64
2022/03/26 01:09:33;;;;;;;7.90;7.20;;;;;;;17.48;42.08;100108.41;1801236;79;21006;-64
2022/03/26 01:12:01;;;;;;;8.38;7.58;;;;;;;17.46;42.09;100104.61;1814478;79;21049;-65
2022/03/26 01:14:28;;;;;;;7.60;6.90;;;;;;;17.45;42.09;100103.45;1814429;78;20959;-64
2022/03/26 01:16:56;;;;;;;8.08;7.37;;;;;;;17.44;42.08;100099.10;1814458;78;21077;-64
2022/03/26 01:19:23;;;;;;;8.38;7.58;;;;;;;17.43;42.10;100091.57;1814574;79;21076;-64
2022/03/26 01:21:49;;;;;;;8.45;7.65;;;;;;;17.42;42.12;100087.74;1821147;78;21166;-64
2022/03/26 01:24:17;;;;;;;9.08;8.10;;;;;;;17.42;42.09;100089.09;1826065;78;20974;-64
2022/03/26 01:26:44;;;;;;;8.70;7.90;;;;;;;17.40;42.12;100092.00;1825157;78;21001;-64
2022/03/26 01:29:10;;;;;;;8.23;7.42;;;;;;;17.39;42.12;100091.67;1826022;78;20998;-64
2022/03/26 01:31:37;;;;;;;8.18;7.37;;;;;;;17.37;42.10;100092.39;1826111;78;21235;-63
2022/03/26 01:36:28;;;;;;;8.15;7.42;;;;;;;17.40;42.12;100087.97;1815224;79;28523;-64
2022/03/26 01:38:54;;;;;;;7.87;7.08;;;;;;;17.36;42.11;100093.94;1788711;80;21076;-64
2022/03/26 01:41:21;;;;;;;7.55;6.85;;;;;;;17.36;42.10;100087.22;1788365;80;21258;-64
2022/03/26 01:43:48;;;;;;;8.30;7.45;;;;;;;17.35;42.11;100082.90;1765429;80;21013;-64
2022/03/26 01:46:15;;;;;;;8.00;7.20;;;;;;;17.33;42.11;100075.04;1757108;81;20992;-65
2022/03/26 01:48:41;;;;;;;7.97;7.17;;;;;;;17.32;42.12;100074.71;1757339;81;20946;-64
2022/03/26 01:51:17;;;;;;;8.50;7.70;;;;;;;17.31;42.11;100073.08;1757228;80;21052;-66
2022/03/26 01:53:46;;;;;;;7.75;6.95;;;;;;;17.29;42.11;100069.77;1757616;81;21208;-64
2022/03/26 01:56:13;;;;;;;8.28;7.47;;;;;;;17.29;42.13;100069.77;1757264;81;21021;-63
2022/03/26 01:58:41;;;;;;;8.10;7.30;;;;;;;17.27;42.13;100061.09;1757342;81;21040;-64
2022/03/26 02:01:08;;;;;;;7.53;6.83;;;;;;;17.27;42.14;100062.44;1785045;80;21077;-63
2022/03/26 02:03:35;;;;;;;7.70;6.97;;;;;;;17.25;42.13;100064.50;1774009;80;20981;-64
2022/03/26 02:06:03;;;;;;;8.08;7.22;;;;;;;17.24;42.13;100052.91;1781795;80;22307;-64
2022/03/26 02:08:31;;;;;;;7.83;6.95;;;;;;;17.24;42.13;100053.44;1788342;80;21018;-64
2022/03/26 02:10:59;;;;;;;7.58;6.78;;;;;;;17.22;42.13;100043.42;1788455;80;21502;-64
2022/03/26 02:13:25;;;;;;;7.97;7.28;;;;;;;17.21;42.13;100047.12;1757867;80;20990;-64
2022/03/26 02:15:53;;;;;;;7.42;6.60;;;;;;;17.19;42.16;100042.47;1788568;80;21032;-64
2022/03/26 02:18:19;;;;;;;7.75;7.05;;;;;;;17.19;42.13;100042.47;1787719;80;21412;-64
2022/03/26 02:20:48;;;;;;;7.95;7.15;;;;;;;17.17;42.15;100035.14;1788405;80;20990;-64
2022/03/26 02:23:16;;;;;;;7.80;7.00;;;;;;;17.16;42.15;100028.95;1788284;80;21013;-64
2022/03/26 02:25:43;;;;;;;8.00;7.25;;;;;;;17.15;42.15;100039.89;1788722;80;21368;-64
2022/03/26 02:28:09;;;;;;;8.58;7.67;;;;;;;17.15;42.17;100038.55;1788511;80;21065;-64
2022/03/26 02:30:36;;;;;;;7.97;7.25;;;;;;;17.13;42.17;100036.58;1788392;80;21252;-64
2022/03/26 02:33:03;;;;;;;7.92;7.12;;;;;;;17.11;42.18;100050.20;1787367;80;21545;-64
2022/03/26 02:35:31;;;;;;;8.30;7.12;;;;;;;17.10;42.17;100038.64;1750568;81;21023;-64
2022/03/26 02:37:58;;;;;;;7.42;6.72;;;;;;;17.09;42.18;100039.69;1744031;82;21089;-64
2022/03/26 02:40:25;;;;;;;7.75;6.97;;;;;;;17.08;42.19;100027.28;1744252;82;21541;-64
2022/03/26 02:42:51;;;;;;;8.08;7.28;;;;;;;17.07;42.18;100021.62;1744232;82;21200;-65
2022/03/26 02:45:18;;;;;;;7.58;6.83;;;;;;;17.06;42.19;100012.42;1743960;82;21093;-64
2022/03/26 02:47:45;;;;;;;7.15;6.45;;;;;;;17.06;42.19;100019.14;1743649;82;21006;-64
2022/03/26 02:50:12;;;;;;;7.45;6.78;;;;;;;17.04;42.20;100016.65;1745693;80;21063;-64
2022/03/26 02:52:39;;;;;;;7.25;6.55;;;;;;;17.04;42.20;100017.17;1746900;80;21006;-64
2022/03/26 02:55:09;;;;;;;7.72;7.03;;;;;;;17.03;42.19;100019.53;1735194;82;21195;-63
2022/03/26 02:57:35;;;;;;;6.97;6.30;;;;;;;17.01;42.17;100007.66;1735131;82;20999;-63
2022/03/26 03:00:05;;;;;;;8.00;7.30;;;;;;;17.00;42.19;100014.06;1735149;82;21038;-64
2022/03/26 03:02:31;;;;;;;7.90;7.10;;;;;;;17.00;42.19;100007.35;1735071;82;20995;-63
2022/03/26 03:05:01;;;;;;;7.72;7.03;;;;;;;16.99;42.21;100004.88;1735241;82;21014;-64
2022/03/26 03:07:27;;;;;;;7.83;7.03;;;;;;;16.98;42.16;99994.66;1737864;80;22228;-65
2022/03/26 03:09:55;;;;;;;8.58;7.67;;;;;;;16.96;42.19;100006.11;1764267;80;21007;-63
2022/03/26 03:12:23;;;;;;;7.47;6.67;;;;;;;16.96;42.19;99994.03;1774172;80;21025;-64
2022/03/26 03:14:50;;;;;;;6.78;6.17;;;;;;;16.95;42.19;99990.20;1774240;80;21046;-63
2022/03/26 03:17:18;;;;;;;7.22;6.53;;;;;;;16.93;42.19;99986.37;1774128;80;21069;-63
2022/03/26 03:19:44;;;;;;;7.95;7.15;;;;;;;16.93;42.18;99982.88;1774413;80;21931;-64
2022/03/26 03:22:12;;;;;;;8.13;7.33;;;;;;;16.92;42.20;99977.19;1774231;80;21030;-66
2022/03/26 03:24:39;;;;;;;7.65;6.90;;;;;;;16.90;42.20;99971.52;1773643;80;21006;-64
2022/03/26 03:27:05;;;;;;;7.78;6.97;;;;;;;16.90;42.19;99977.38;1774295;80;20989;-64
2022/03/26 03:29:32;;;;;;;8.93;7.20;;;;;;;16.89;42.20;99972.54;1774186;80;21049;-64
2022/03/26 03:31:59;;;;;;;7.65;6.95;;;;;;;16.88;42.19;99976.27;1774250;80;21236;-64
2022/03/26 03:34:25;;;;;;;7.78;7.03;;;;;;;16.86;42.21;99970.28;1774121;80;21033;-63
2022/03/26 03:36:52;;;;;;;7.10;6.40;;;;;;;16.85;42.21;99961.91;1774277;80;21582;-64
2022/03/26 03:39:18;;;;;;;7.83;7.03;;;;;;;16.86;42.21;99965.41;1774248;80;21023;-64
2022/03/26 03:41:45;;;;;;;6.92;6.22;;;;;;;16.85;42.22;99965.11;1773143;80;21026;-64
2022/03/26 03:44:11;;;;;;;7.50;6.80;;;;;;;16.83;42.19;99958.60;1774270;80;21129;-64
2022/03/26 03:46:39;;;;;;;7.62;6.92;;;;;;;16.82;42.21;99951.56;1774269;80;21053;-65
2022/03/26 03:49:06;;;;;;;7.53;6.72;;;;;;;16.81;42.23;99955.27;1774187;80;21042;-64
2022/03/26 03:51:32;;;;;;;7.55;6.85;;;;;;;16.81;42.21;99949.09;1774198;80;21085;-65
2022/03/26 03:53:59;;;;;;;7.15;6.45;;;;;;;16.79;42.21;99949.80;1774354;80;21515;-64
2022/03/26 03:56:26;;;;;;;7.50;6.70;;;;;;;16.78;42.22;99942.25;1774117;80;21133;-64
2022/03/26 03:58:52;;;;;;;7.00;6.30;;;;;;;16.78;42.21;99942.77;1763229;80;21089;-65
2022/03/26 04:01:19;;;;;;;7.75;7.05;;;;;;;16.77;42.22;99941.13;1743593;82;21439;-63
2022/03/26 04:03:46;;;;;;;7.53;6.83;;;;;;;16.77;42.25;99946.50;1743840;82;21026;-64
2022/03/26 04:06:12;;;;;;;7.70;6.90;;;;;;;16.76;42.23;99942.15;1743585;82;21096;-64
2022/03/26 04:08:39;;;;;;;7.30;6.60;;;;;;;16.75;42.24;99939.17;1743499;82;22189;-64
2022/03/26 04:11:06;;;;;;;7.17;6.47;;;;;;;16.75;42.23;99937.83;1743573;82;21038;-64
2022/03/26 04:13:32;;;;;;;7.87;7.08;;;;;;;16.74;42.24;99932.14;1743536;82;21053;-64
2022/03/26 04:15:59;;;;;;;7.62;6.92;;;;;;;16.73;42.26;99930.47;1750019;80;21046;-63
2022/03/26 04:18:25;;;;;;;7.25;6.65;;;;;;;16.73;42.27;99931.32;1737397;82;21033;-64
2022/03/26 04:20:53;;;;;;;7.47;6.78;;;;;;;16.71;42.26;99926.16;1737193;82;21272;-64
2022/03/26 04:23:20;;;;;;;7.35;6.62;;;;;;;16.70;42.26;99916.44;1737082;82;21029;-64
2022/03/26 04:25:49;;;;;;;7.80;7.00;;;;;;;16.70;42.27;99909.73;1737217;82;21455;-63
2022/03/26 04:28:16;;;;;;;7.15;6.45;;;;;;;16.69;42.27;99902.73;1737123;82;21026;-64
2022/03/26 04:30:43;;;;;;;7.35;6.65;;;;;;;16.69;42.27;99906.76;1737183;82;21038;-64
2022/03/26 04:33:10;;;;;;;7.58;6.87;;;;;;;16.69;42.26;99900.05;1741744;80;21257;-63
2022/03/26 04:35:38;;;;;;;7.55;6.72;;;;;;;16.68;42.26;99901.06;1743309;82;21030;-63
2022/03/26 04:38:04;;;;;;;8.13;7.33;;;;;;;16.68;42.28;99895.70;1743570;82;21033;-64
2022/03/26 04:40:33;;;;;;;7.12;6.42;;;;;;;16.67;42.26;99888.70;1743467;82;21073;-64
2022/03/26 04:43:00;;;;;;;7.62;6.83;;;;;;;16.68;42.30;99885.50;1743502;82;21062;-63
2022/03/26 04:45:29;;;;;;;7.42;6.53;;;;;;;16.66;42.28;99893.73;1743560;82;21940;-64
2022/03/26 04:47:55;;;;;;;7.62;6.83;;;;;;;16.67;42.28;99887.36;1743385;82;21058;-64
2022/03/26 04:50:22;;;;;;;8.25;7.45;;;;;;;16.66;42.29;99895.61;1749609;80;21096;-65
2022/03/26 04:52:48;;;;;;;6.97;6.28;;;;;;;16.67;42.31;99890.05;1774272;80;21030;-64
2022/03/26 04:55:18;;;;;;;7.50;6.80;;;;;;;16.67;42.29;99881.17;1774133;80;21022;-65
2022/03/26 04:57:51;;;;;;;7.28;6.50;;;;;;;16.67;42.32;99879.84;1774232;80;21212;-64
2022/03/26 05:00:18;;;;;;;7.47;6.78;;;;;;;16.67;42.30;99879.31;1774538;80;21069;-64
2022/03/26 05:02:45;;;;;;;7.03;6.33;;;;;;;16.67;42.28;99877.97;1774254;80;21006;-64
2022/03/26 05:05:13;;;;;;;7.53;6.80;;;;;;;16.67;42.30;99876.63;1774090;80;21069;-64
2022/03/26 05:07:45;;;;;;;7.78;6.95;;;;;;;16.68;42.31;99881.47;1753217;80;21049;-63
2022/03/26 05:10:24;;;;;;;6.78;6.17;;;;;;;16.69;42.30;99888.50;1743563;82;21094;-64
2022/03/26 05:12:51;;;;;;;7.47;6.70;;;;;;;16.68;42.28;99875.59;1743428;82;21046;-64
2022/03/26 05:15:22;;;;;;;7.97;6.85;;;;;;;16.69;42.31;99874.57;1743512;82;21014;-64
2022/03/26 05:17:51;;;;;;;8.00;7.20;;;;;;;16.69;42.30;99875.91;1743572;82;21014;-64
2022/03/26 05:20:18;;;;;;;7.72;6.60;;;;;;;16.69;42.30;99871.88;1746231;80;21042;-63
2022/03/26 05:22:46;;;;;;;7.25;6.58;;;;;;;16.69;42.31;99874.57;1753448;80;21223;-64
2022/03/26 05:25:13;;;;;;;7.50;6.80;;;;;;;16.70;42.30;99866.81;1773575;80;21443;-63
2022/03/26 05:27:49;;;;;;;7.97;7.17;;;;;;;16.70;42.29;99857.42;1774280;80;21085;-64
2022/03/26 05:30:16;;;;;;;7.85;7.05;;;;;;;16.71;42.28;99852.39;1774222;80;21097;-64
2022/03/26 05:32:43;;;;;;;7.40;6.70;;;;;;;16.72;42.29;99849.18;1774184;80;20999;-64
2022/03/26 05:35:13;;;;;;;7.75;6.95;;;;;;;16.72;42.28;99850.52;1774023;80;21046;-64
2022/03/26 05:37:47;;;;;;;7.80;6.95;;;;;;;16.74;42.24;99840.94;1774060;80;20999;-63
2022/03/26 05:40:16;;;;;;;7.17;6.47;;;;;;;16.74;42.27;99849.80;1773091;80;21070;-63
2022/03/26 05:42:44;;;;;;;8.10;7.33;;;;;;;16.74;42.23;99845.77;1774623;80;21003;-64
2022/03/26 05:45:11;;;;;;;7.37;6.67;;;;;;;16.76;42.24;99850.94;1774370;80;21636;-63
2022/03/26 05:47:37;;;;;;;7.90;6.72;;;;;;;16.77;42.23;99839.19;1774111;80;21081;-64
2022/03/26 05:50:07;;;;;;;7.10;6.40;;;;;;;16.78;42.22;99835.46;1774140;80;21022;-64
2022/03/26 05:52:33;;;;;;;7.47;6.78;;;;;;;16.79;42.22;99839.81;1774478;80;20986;-64
2022/03/26 05:55:00;;;;;;;7.95;6.90;;;;;;;16.80;42.20;99834.73;1774099;80;21023;-63
2022/03/26 05:57:26;;;;;;;8.15;7.35;;;;;;;16.81;42.20;99831.03;1768899;80;21542;-63
2022/03/26 05:59:53;;;;;;;7.92;7.12;;;;;;;16.82;42.21;99828.16;1743553;82;21157;-63
2022/03/26 06:02:21;;;;;;;7.83;7.03;;;;;;;16.83;42.20;99816.41;1743306;82;21061;-64
2022/03/26 06:04:49;;;;;;;7.25;6.55;;;;;;;16.85;42.22;99814.34;1743581;82;21077;-65
2022/03/26 06:07:15;;;;;;;8.63;7.25;;;;;;;16.86;42.18;99817.84;1743444;82;21503;-63
2022/03/26 06:09:43;;;;;;;7.12;6.42;;;;;;;16.88;42.18;99811.75;1743569;82;21081;-65
2022/03/26 06:12:10;;;;;;;7.42;6.72;;;;;;;16.89;42.18;99812.89;1743310;82;21153;-64
2022/03/26 06:14:38;;;;;;;7.53;6.72;;;;;;;16.90;42.16;99811.88;1744704;80;21109;-64
2022/03/26 06:17:04;;;;;;;7.53;6.80;;;;;;;16.92;42.17;99810.82;1743348;82;21041;-64
2022/03/26 06:19:31;;;;;;;7.60;6.90;;;;;;;16.93;42.13;99803.91;1743458;82;21022;-64
2022/03/26 06:21:57;;;;;;;8.03;7.22;;;;;;;16.94;42.13;99792.66;1743626;82;20975;-63
2022/03/26 06:24:25;;;;;;;8.03;7.22;;;;;;;16.95;42.11;99800.50;1743499;82;21038;-63
2022/03/26 06:26:52;;;;;;;7.75;7.03;;;;;;;16.97;42.12;99795.75;1749118;80;21573;-65
2022/03/26 06:29:19;;;;;;;7.83;7.12;;;;;;;16.98;42.11;99788.52;1755836;80;21015;-64
2022/03/26 06:31:46;;;;;;;7.40;6.70;;;;;;;17.00;42.10;99791.84;1773706;80;21026;-64
2022/03/26 06:34:12;;;;;;;7.35;6.65;;;;;;;17.01;42.09;99789.45;1774210;80;21089;-64
2022/03/26 06:36:39;;;;;;;7.55;6.85;;;;;;;17.02;42.08;99787.09;1771505;80;21138;-64
2022/03/26 06:39:06;;;;;;;7.45;6.75;;;;;;;17.04;42.07;99791.20;1767199;81;21621;-64
2022/03/26 06:41:38;;;;;;;7.22;6.53;;;;;;;17.04;42.06;99783.16;1767371;81;21003;-64
2022/03/26 06:44:02;;;;;;;7.33;6.60;;;;;;;17.05;42.05;99771.37;1766630;81;21081;-64
2022/03/26 06:46:29;;;;;;;8.38;7.47;;;;;;;17.08;42.05;99774.17;1767120;81;21002;-65
2022/03/26 06:48:56;;;;;;;7.78;7.00;;;;;;;17.09;42.04;99769.09;1755749;80;21305;-64
2022/03/26 06:51:22;;;;;;;7.15;6.45;;;;;;;17.09;42.03;99767.75;1767060;80;21046;-64
2022/03/26 06:53:49;;;;;;;7.70;7.00;;;;;;;17.10;42.02;99756.81;1767113;80;21077;-64
2022/03/26 06:56:17;;;;;;;8.40;7.50;;;;;;;17.13;42.02;99759.58;1767220;81;20983;-64
2022/03/26 06:58:44;;;;;;;7.50;6.78;;;;;;;17.16;42.03;99755.67;1718037;83;21046;-65
2022/03/26 07:01:11;;;;;;;7.92;7.22;;;;;;;17.17;42.06;99751.94;1767186;81;21422;-64
2022/03/26 07:03:38;;;;;;;7.40;6.70;;;;;;;17.18;42.05;99746.36;1767114;81;21034;-64
2022/03/26 07:06:05;;;;;;;7.45;6.65;;;;;;;17.19;42.06;99745.34;1753526;81;21054;-63
2022/03/26 07:08:32;;;;;;;6.80;6.20;;;;;;;17.22;42.05;99746.24;1736616;82;21022;-63
2022/03/26 07:10:59;;;;;;;8.03;6.83;;;;;;;17.23;42.03;99748.41;1736877;82;21557;-63
2022/03/26 07:13:26;;;;;;;7.45;6.67;;;;;;;17.24;42.01;99741.48;1736630;82;21239;-66
2022/03/26 07:15:54;;;;;;;8.13;7.33;;;;;;;17.26;42.02;99730.55;1736620;82;21593;-63
2022/03/26 07:18:21;;;;;;;7.87;7.10;;;;;;;17.27;42.02;99745.62;1736734;82;21026;-63
2022/03/26 07:20:51;;;;;;;8.38;7.45;;;;;;;17.29;42.01;99741.69;1736751;82;21460;-64
2022/03/26 07:23:18;;;;;;;8.63;7.72;;;;;;;17.30;42.00;99734.45;1737778;81;21510;-64
2022/03/26 07:25:45;;;;;;;7.30;6.70;;;;;;;17.32;42.00;99743.11;1736710;82;21146;-64
2022/03/26 07:28:11;;;;;;;8.20;7.40;;;;;;;17.34;41.99;99734.85;1736579;82;21062;-63
2022/03/26 07:30:38;;;;;;;8.18;7.15;;;;;;;17.36;42.00;99733.59;1736888;82;21526;-64
2022/03/26 07:33:05;;;;;;;7.90;7.10;;;;;;;17.37;41.98;99730.41;1739781;81;21068;-64
2022/03/26 07:35:31;;;;;;;7.25;6.55;;;;;;;17.37;41.95;99729.88;1759252;81;21011;-65
2022/03/26 07:37:58;;;;;;;8.28;7.47;;;;;;;17.40;41.94;99716.54;1767053;80;22054;-64
2022/03/26 07:40:25;;;;;;;7.95;7.15;;;;;;;17.42;41.94;99711.28;1766292;81;21014;-64
2022/03/26 07:42:51;;;;;;;8.15;7.35;;;;;;;17.42;41.94;99707.25;1767144;81;21007;-64
2022/03/26 07:45:18;;;;;;;8.55;7.22;;;;;;;17.45;41.95;99701.44;1767175;81;21073;-64
2022/03/26 07:47:44;;;;;;;7.70;6.90;;;;;;;17.47;41.95;99695.86;1767324;81;21073;-63
2022/03/26 07:50:12;;;;;;;7.67;6.92;;;;;;;17.48;41.96;99710.42;1767210;80;21228;-64
2022/03/26 07:52:41;;;;;;;8.55;7.15;;;;;;;17.51;41.93;99689.55;1767136;80;21006;-64
2022/03/26 07:55:10;;;;;;;8.03;7.22;;;;;;;17.53;41.91;99688.28;1767068;80;21010;-65
2022/03/26 07:57:37;;;;;;;8.20;7.40;;;;;;;17.55;41.92;99682.17;1765997;81;21043;-64
2022/03/26 08:00:06;;;;;;;7.97;7.17;;;;;;;17.58;41.95;99679.59;1767238;81;21038;-64
2022/03/26 08:02:34;;;;;;;8.88;7.50;;;;;;;17.61;41.94;99657.66;1766250;81;21111;-65
2022/03/26 08:05:02;;;;;;;8.40;7.58;;;;;;;17.63;41.96;99656.92;1767056;81;20991;-64
2022/03/26 08:07:29;;;;;;;8.65;7.03;;;;;;;17.66;41.98;99653.81;1767123;81;21503;-65
2022/03/26 08:09:57;;;;;;;8.30;7.50;;;;;;;17.68;41.99;99657.11;1767127;81;21484;-64
2022/03/26 08:12:24;;;;;;;8.23;7.40;;;;;;;17.71;41.97;99637.84;1767072;81;21038;-65
2022/03/26 08:14:51;;;;;;;9.03;8.10;;;;;;;17.75;41.95;99631.52;1766025;81;21224;-64
2022/03/26 08:17:19;;;;;;;8.13;7.12;;;;;;;17.76;41.99;99629.97;1767059;81;20992;-65
2022/03/26 08:19:47;;;;;;;8.08;7.30;;;;;;;17.79;42.01;99634.92;1767140;81;21062;-64
2022/03/26 08:22:13;;;;;;;7.87;7.17;;;;;;;17.82;41.99;99622.91;1767053;81;20987;-64
2022/03/26 08:24:40;;;;;;;7.92;7.05;;;;;;;17.85;41.98;99623.86;1767430;81;21018;-64
2022/03/26 08:27:07;;;;;;;8.23;7.40;;;;;;;17.87;41.99;99617.21;1767201;81;21088;-64
2022/03/26 08:29:33;;;;;;;8.30;7.50;;;;;;;17.91;41.96;99623.50;1766963;81;20990;-65
2022/03/26 08:32:04;;;;;;;8.00;7.28;;;;;;;17.93;41.93;99606.11;1766122;81;21070;-66
2022/03/26 08:34:28;;;;;;;7.80;7.03;;;;;;;17.96;41.93;99607.00;1766756;81;21011;-65
2022/03/26 08:36:55;;;;;;;8.15;7.25;;;;;;;18.00;41.94;99599.32;1742404;81;21026;-64
2022/03/26 08:39:21;;;;;;;8.13;7.35;;;;;;;18.03;41.92;99590.83;1752482;80;21879;-64
2022/03/26 08:41:48;;;;;;;8.18;7.25;;;;;;;18.05;41.91;99584.70;1747971;80;21026;-65
2022/03/26 08:44:14;;;;;;;7.78;7.08;;;;;;;18.08;41.83;99585.09;1737206;82;21586;-64
2022/03/26 08:46:41;;;;;;;8.43;7.55;;;;;;;18.12;41.81;99568.00;1737184;82;21030;-65
2022/03/26 08:49:08;;;;;;;7.45;6.53;;;;;;;18.16;41.82;99561.14;1758776;80;21135;-64
2022/03/26 08:51:34;;;;;;;7.85;7.15;;;;;;;18.20;41.80;99570.93;1774190;80;21137;-64
2022/03/26 08:54:01;;;;;;;7.72;6.92;;;;;;;18.23;41.75;99556.52;1774319;80;21458;-64
2022/03/26 08:56:28;;;;;;;7.15;6.45;;;;;;;18.26;41.70;99564.13;1774216;80;21014;-65
2022/03/26 08:58:55;;;;;;;7.12;6.42;;;;;;;18.30;41.71;99552.41;1774519;80;21010;-64
2022/03/26 09:01:21;;;;;;;7.20;6.50;;;;;;;18.34;41.71;99544.72;1774208;80;20990;-65
2022/03/26 09:03:50;;;;;;;7.33;6.62;;;;;;;18.37;41.69;99549.13;1774345;80;21224;-65
2022/03/26 09:06:18;;;;;;;7.50;6.67;;;;;;;18.40;41.68;99545.16;1773037;80;22124;-64
2022/03/26 09:08:44;;;;;;;7.12;6.42;;;;;;;18.43;41.66;99527.25;1774400;80;21012;-64
2022/03/26 09:11:12;;;;;;;7.53;6.80;;;;;;;18.47;41.64;99528.44;1774118;80;21054;-64
2022/03/26 09:13:40;;;;;;;7.83;7.03;;;;;;;18.50;41.66;99522.59;1774335;80;21055;-65
2022/03/26 09:16:08;;;;;;;7.22;6.53;;;;;;;18.54;41.63;99513.02;1774233;80;21414;-65
2022/03/26 09:18:34;;;;;;;7.60;6.90;;;;;;;18.57;41.64;99519.30;1774084;80;21061;-65
2022/03/26 09:21:01;;;;;;;6.58;5.97;;;;;;;18.61;41.64;99521.02;1773630;80;21007;-64
2022/03/26 09:23:27;;;;;;;7.12;6.42;;;;;;;18.64;41.64;99506.59;1774025;80;20979;-64
2022/03/26 09:25:54;;;;;;;8.53;6.58;;;;;;;18.68;41.68;99498.90;1774241;80;21026;-64
2022/03/26 09:28:21;;;;;;;7.50;6.62;;;;;;;18.72;41.73;99484.47;1774318;80;21137;-65
2022/03/26 09:30:50;;;;;;;8.25;6.83;;;;;;;18.76;41.80;99481.62;1774119;80;21073;-64
2022/03/26 09:33:16;;;;;;;8.13;7.33;;;;;;;18.81;41.80;99474.53;1774113;80;21073;-64
2022/03/26 09:35:44;;;;;;;7.55;6.75;;;;;;;18.85;41.87;99464.95;1774108;80;21006;-64
2022/03/26 09:38:11;;;;;;;7.40;6.70;;;;;;;18.90;41.85;99465.59;1772945;80;21038;-64
2022/03/26 09:40:38;;;;;;;7.80;7.00;;;;;;;18.94;41.79;99454.66;1774218;80;21135;-65
2022/03/26 09:43:05;;;;;;;7.45;6.75;;;;;;;19.00;41.73;99451.05;1774248;80;21037;-64
2022/03/26 09:45:33;;;;;;;7.25;6.53;;;;;;;19.06;41.68;99437.19;1759340;80;20979;-65
2022/03/26 09:48:00;;;;;;;7.55;6.53;;;;;;;19.13;41.71;99440.61;1766171;80;21085;-64
2022/03/26 09:50:26;;;;;;;7.50;6.70;;;;;;;19.19;41.77;99427.56;1774257;80;21101;-64
2022/03/26 09:52:53;;;;;;;7.22;6.22;;;;;;;19.26;41.77;99400.54;1774284;80;21758;-64
2022/03/26 09:55:21;;;;;;;7.42;6.72;;;;;;;19.32;41.77;99411.72;1697285;80;20998;-64
2022/03/26 09:57:48;;;;;;;7.00;6.30;;;;;;;19.38;41.73;99409.44;1774241;80;21038;-64
2022/03/26 10:00:15;;;;;;;7.40;6.70;;;;;;;19.44;41.72;99402.30;1774313;80;21059;-63
2022/03/26 10:02:42;;;;;;;7.45;6.75;;;;;;;19.50;41.71;99391.92;1774471;80;21085;-64
2022/03/26 10:05:12;;;;;;;7.50;6.80;;;;;;;19.56;41.71;99389.63;1774344;80;21081;-64
2022/03/26 10:07:37;;;;;;;7.10;6.37;;;;;;;19.63;41.69;99389.52;1774206;80;21018;-64
2022/03/26 10:10:05;;;;;;;7.08;6.25;;;;;;;19.68;41.71;99370.75;1774433;80;21045;-64
2022/03/26 10:12:33;;;;;;;6.55;5.87;;;;;;;19.74;41.69;99364.47;1773125;80;21054;-65
2022/03/26 10:15:04;;;;;;;7.10;6.40;;;;;;;19.81;41.64;99344.92;1774470;80;21089;-64
2022/03/26 10:17:37;;;;;;;7.30;6.62;;;;;;;19.86;41.62;99359.55;1774610;80;21159;-65
2022/03/26 10:20:06;;;;;;;7.00;6.35;;;;;;;19.91;41.57;99353.73;1774272;80;21084;-66
2022/03/26 10:22:43;;;;;;;6.50;5.90;;;;;;;19.96;41.53;99353.05;1774695;80;21014;-63
2022/03/26 10:25:20;;;;;;;6.70;6.10;;;;;;;20.00;41.48;99348.27;1774342;80;21530;-64
2022/03/26 10:27:51;;;;;;;6.20;5.60;;;;;;;20.04;41.48;99344.56;1774466;80;21034;-63
2022/03/26 10:33:20;;;;;;;7.00;6.30;;;;;;;20.15;41.41;99321.33;1774196;80;21002;-64
2022/03/26 10:35:58;;;;;;;7.50;6.40;;;;;;;20.20;41.38;99308.76;1774291;80;21033;-65
2022/03/26 10:38:41;;;;;;;6.37;5.78;;;;;;;20.26;41.37;99310.18;1779021;80;21300;-64
2022/03/26 10:41:08;;;;;;;6.78;6.17;;;;;;;20.31;41.34;99306.23;1782545;80;21050;-64
2022/03/26 10:43:37;;;;;;;6.53;5.92;;;;;;;20.35;41.32;99305.50;1782690;80;21999;-65
2022/03/26 10:46:04;;;;;;;6.25;5.65;;;;;;;20.38;41.30;99304.21;1781773;80;21003;-63
2022/03/26 10:48:33;;;;;;;7.12;6.42;;;;;;;20.39;41.24;99293.16;1751492;82;21041;-64
2022/03/26 10:51:02;;;;;;;7.05;6.08;;;;;;;20.42;41.23;99270.29;1757229;80;21534;-64
2022/03/26 10:53:44;;;;;;;6.65;5.67;;;;;;;20.44;41.20;99268.16;1738062;80;21015;-64
2022/03/26 10:56:13;;;;;;;6.95;6.35;;;;;;;20.46;41.17;99236.36;1782656;80;21137;-65
2022/03/26 10:58:41;;;;;;;6.78;6.08;;;;;;;20.49;41.15;99245.30;1782475;80;21018;-64
2022/03/26 11:01:08;;;;;;;7.15;6.45;;;;;;;20.53;41.13;99235.67;1782581;80;21045;-66
2022/03/26 11:03:36;;;;;;;6.92;6.28;;;;;;;20.57;41.11;99206.29;1775140;80;21041;-64
2022/03/26 11:06:08;;;;;;;6.92;6.22;;;;;;;20.62;41.09;99208.56;1751475;82;21031;-63
2022/03/26 11:08:37;;;;;;;6.85;6.25;;;;;;;20.69;41.02;99217.05;1751658;82;21003;-64
2022/03/26 11:11:07;;;;;;;7.17;6.47;;;;;;;20.74;41.01;99202.27;1751469;81;21073;-65
2022/03/26 11:13:44;;;;;;;6.65;5.95;;;;;;;20.81;40.99;99192.11;1751784;82;21042;-64
2022/03/26 11:16:24;;;;;;;6.85;5.90;;;;;;;20.88;40.94;99198.67;1719063;82;21590;-65
2022/03/26 11:19:10;;;;;;;7.12;6.08;;;;;;;20.92;40.92;99191.20;1751587;82;21069;-64
2022/03/26 11:22:09;;;;;;;6.62;6.03;;;;;;;20.96;40.86;99184.22;1752523;80;21252;-64
2022/03/26 11:25:11;;;;;;;6.33;5.72;;;;;;;21.01;40.83;99178.91;1751539;82;21088;-63
2022/03/26 11:28:15;;;;;;;6.53;5.85;;;;;;;21.05;40.78;99166.23;1719955;82;21030;-64
2022/03/26 11:31:23;;;;;;;6.35;5.75;;;;;;;21.06;40.75;99143.03;1736539;82;20982;-64
2022/03/26 11:33:49;;;;;;;6.60;6.00;;;;;;;21.08;40.72;99160.34;1751584;82;21022;-65
2022/03/26 11:36:19;;;;;;;6.20;5.60;;;;;;;21.10;40.69;99121.20;1751467;80;21186;-64
2022/03/26 11:39:09;;;;;;;6.17;5.58;;;;;;;21.12;40.65;99120.95;1769199;80;21014;-64
2022/03/26 11:41:36;;;;;;;6.15;5.53;;;;;;;21.14;40.64;99112.06;1773952;80;21042;-64